Union Grove, North Carolina
Current Conditions -  °F | °C
As of 1:15 PM on Wednesday 28 Jan 2015 (Local Time) from KUKF Reporting Station
Clear Clear  
Wind Chill: 43°   Ceiling: Unl
Heat Index: 43°   Visibility: 10mi
Dew Point: 18°   Wind: 3mph
Humidity: 36%   Direction: 350°N
Pressure: 30.24"   Gusts: NA
Location:  36.03°N, 80.87°W
Report Text: KUKF 281815Z AUTO 35003KT 10SM CLR 06/M08 A3024 RMK AO2
Loading
Personal Weather Stations






























Interactive Weather Map New forecast layout! Learn more

10-Day Weather Forecast

Advertisements
Track Severe Weather on mobile